Time;durP1;ratioP1;P1;durP2;ratioP2;P2;SDS_P1;SDS_P2;PMS_P1;PMS_P2;Temp;Humidity;BMP_temperature;BMP_pressure;BME280_temperature;BME280_humidity;BME280_pressure;Samples;Min_cycle;Max_cycle;Signal;HPM_P1;HPM_P2
2022/11/17 00:01:35;;;;;;;0.60;0.60;;;;;;;;;;5081006;28;20457;-76
2022/11/17 00:04:03;;;;;;;0.60;0.57;;;;;;;;;;5077753;28;20648;-77
2022/11/17 00:06:29;;;;;;;0.60;0.60;;;;;;;;;;5057224;28;20467;-76
2022/11/17 00:08:57;;;;;;;0.60;0.60;;;;;;;;;;5074148;28;20498;-77
2022/11/17 00:11:25;;;;;;;0.70;0.70;;;;;;;;;;5079302;28;20451;-74
2022/11/17 00:16:50;;;;;;;0.60;0.60;;;;;;;;;;5085033;28;21025;-76
2022/11/17 00:22:03;;;;;;;0.60;0.60;;;;;;;;;;5077431;28;20484;-76
2022/11/17 00:24:33;;;;;;;0.60;0.60;;;;;;;;;;5085694;28;20442;-74
2022/11/17 00:27:02;;;;;;;0.70;0.70;;;;;;;;;;5080603;28;20484;-74
2022/11/17 00:29:29;;;;;;;0.70;0.60;;;;;;;;;;5057806;28;20988;-77
2022/11/17 00:34:44;;;;;;;0.60;0.60;;;;;;;;;;5060470;28;20447;-76
2022/11/17 00:37:12;;;;;;;2.10;1.70;;;;;;;;;;5075087;28;20479;-76
2022/11/17 00:39:40;;;;;;;0.60;0.60;;;;;;;;;;5089178;28;20440;-74
2022/11/17 00:42:06;;;;;;;1.00;1.00;;;;;;;;;;5065245;28;20467;-75
2022/11/17 00:44:36;;;;;;;0.60;0.60;;;;;;;;;;5080918;28;20445;-75
2022/11/17 00:47:03;;;;;;;0.70;0.60;;;;;;;;;;5085795;28;20468;-74
2022/11/17 00:49:29;;;;;;;0.60;0.60;;;;;;;;;;5060980;28;20467;-76
2022/11/17 00:51:56;;;;;;;0.70;0.70;;;;;;;;;;5072461;28;20474;-75
2022/11/17 00:54:24;;;;;;;0.70;0.70;;;;;;;;;;5057523;28;20502;-76
2022/11/17 00:56:52;;;;;;;0.60;0.60;;;;;;;;;;5084165;28;20477;-77
2022/11/17 00:59:20;;;;;;;0.60;0.60;;;;;;;;;;5080387;28;20911;-77
2022/11/17 01:01:47;;;;;;;0.70;0.70;;;;;;;;;;5084724;28;20427;-77
2022/11/17 01:04:18;;;;;;;0.60;0.60;;;;;;;;;;5079889;28;20792;-79
2022/11/17 01:06:46;;;;;;;0.80;0.80;;;;;;;;;;5072156;28;20519;-78
2022/11/17 01:09:14;;;;;;;0.60;0.60;;;;;;;;;;5087666;28;20455;-77
2022/11/17 01:11:40;;;;;;;0.70;0.70;;;;;;;;;;5081770;28;20443;-78
2022/11/17 01:14:11;;;;;;;0.70;0.70;;;;;;;;;;5079976;28;20492;-78
2022/11/17 01:16:39;;;;;;;0.70;0.70;;;;;;;;;;5086124;28;20444;-76
2022/11/17 01:19:06;;;;;;;0.60;0.60;;;;;;;;;;5076877;28;20869;-78
2022/11/17 01:21:34;;;;;;;0.70;0.70;;;;;;;;;;5055990;28;20554;-77
2022/11/17 01:24:01;;;;;;;0.70;0.70;;;;;;;;;;5070892;28;20438;-77
2022/11/17 01:26:29;;;;;;;0.60;0.60;;;;;;;;;;5081586;28;20512;-77
2022/11/17 01:28:57;;;;;;;0.70;0.70;;;;;;;;;;5084212;28;20517;-77
2022/11/17 01:31:27;;;;;;;0.60;0.60;;;;;;;;;;5088229;28;20437;-78
2022/11/17 01:33:57;;;;;;;0.70;0.70;;;;;;;;;;5074687;28;20438;-77
2022/11/17 01:36:26;;;;;;;0.60;0.60;;;;;;;;;;5052792;28;20474;-78
2022/11/17 01:38:53;;;;;;;0.70;0.70;;;;;;;;;;5077076;28;20446;-77
2022/11/17 01:41:21;;;;;;;0.63;0.63;;;;;;;;;;5065470;28;20443;-78
2022/11/17 01:43:49;;;;;;;0.60;0.60;;;;;;;;;;5080867;28;20488;-78
2022/11/17 01:46:24;;;;;;;0.60;0.60;;;;;;;;;;5081264;28;20451;-79
2022/11/17 01:48:53;;;;;;;0.70;0.70;;;;;;;;;;5079759;28;20478;-77
2022/11/17 01:51:20;;;;;;;0.60;0.60;;;;;;;;;;5074291;28;20458;-76
2022/11/17 01:53:49;;;;;;;0.60;0.60;;;;;;;;;;5077985;28;20459;-77
2022/11/17 01:56:17;;;;;;;0.60;0.60;;;;;;;;;;5083312;28;20433;-77
2022/11/17 01:58:50;;;;;;;0.70;0.70;;;;;;;;;;5086836;28;20447;-77
2022/11/17 02:01:20;;;;;;;0.60;0.60;;;;;;;;;;5092121;28;20451;-77
2022/11/17 02:03:48;;;;;;;0.60;0.60;;;;;;;;;;5087023;28;20481;-77
2022/11/17 02:06:20;;;;;;;0.60;0.60;;;;;;;;;;5057669;28;20981;-77
2022/11/17 02:08:51;;;;;;;0.60;0.60;;;;;;;;;;5063536;28;20872;-77
2022/11/17 02:11:21;;;;;;;0.60;0.53;;;;;;;;;;5084718;28;20953;-77
2022/11/17 02:13:55;;;;;;;0.60;0.60;;;;;;;;;;5065560;28;20995;-77
2022/11/17 02:16:25;;;;;;;0.60;0.60;;;;;;;;;;5062639;28;20531;-77
2022/11/17 02:18:54;;;;;;;0.70;0.70;;;;;;;;;;5089316;28;20441;-77
2022/11/17 02:21:36;;;;;;;0.70;0.70;;;;;;;;;;5092484;28;20459;-77
2022/11/17 02:24:26;;;;;;;0.60;0.60;;;;;;;;;;5057078;28;20449;-78
2022/11/17 02:27:07;;;;;;;0.60;0.60;;;;;;;;;;5069214;28;20458;-75
2022/11/17 02:29:47;;;;;;;0.60;0.60;;;;;;;;;;5056631;28;20461;-77
2022/11/17 02:32:18;;;;;;;0.93;0.90;;;;;;;;;;5074951;28;20507;-76
2022/11/17 02:34:58;;;;;;;0.60;0.60;;;;;;;;;;5090529;28;20445;-76
2022/11/17 02:37:39;;;;;;;0.60;0.60;;;;;;;;;;5079011;28;20437;-78
2022/11/17 02:40:12;;;;;;;0.60;0.60;;;;;;;;;;5084029;28;20448;-75
2022/11/17 02:45:37;;;;;;;0.60;0.60;;;;;;;;;;5084727;28;20502;-76
2022/11/17 02:48:12;;;;;;;0.80;0.80;;;;;;;;;;5089754;28;20445;-77
2022/11/17 02:50:44;;;;;;;0.60;0.53;;;;;;;;;;5043918;28;20479;-77
2022/11/17 02:53:15;;;;;;;0.70;0.70;;;;;;;;;;5051955;28;20444;-75
2022/11/17 02:55:48;;;;;;;0.60;0.60;;;;;;;;;;5083820;28;20458;-76
2022/11/17 02:58:29;;;;;;;0.60;0.60;;;;;;;;;;5078238;28;20473;-76
2022/11/17 03:01:14;;;;;;;0.70;0.70;;;;;;;;;;5084808;28;20456;-79
2022/11/17 03:03:52;;;;;;;0.60;0.60;;;;;;;;;;5077455;28;20546;-76
2022/11/17 03:06:31;;;;;;;0.60;0.60;;;;;;;;;;5077554;28;20467;-76
2022/11/17 03:09:05;;;;;;;0.70;0.70;;;;;;;;;;5076821;28;20471;-77
2022/11/17 03:11:38;;;;;;;0.60;0.60;;;;;;;;;;5059869;28;20972;-77
2022/11/17 03:14:08;;;;;;;0.60;0.60;;;;;;;;;;5073838;28;20460;-76
2022/11/17 03:16:43;;;;;;;0.70;0.70;;;;;;;;;;5089614;28;20526;-78
2022/11/17 03:19:16;;;;;;;0.60;0.60;;;;;;;;;;5084067;28;20424;-80
2022/11/17 03:21:53;;;;;;;0.60;0.60;;;;;;;;;;5076898;28;20459;-80
2022/11/17 03:24:26;;;;;;;0.70;0.70;;;;;;;;;;5083064;28;20446;-77
2022/11/17 03:27:01;;;;;;;0.70;0.70;;;;;;;;;;5083969;28;20454;-78
2022/11/17 03:29:33;;;;;;;0.70;0.70;;;;;;;;;;5051270;28;20470;-77
2022/11/17 03:32:06;;;;;;;0.60;0.60;;;;;;;;;;5082782;28;21061;-78
2022/11/17 03:34:38;;;;;;;0.60;0.60;;;;;;;;;;5087042;28;20474;-78
2022/11/17 03:37:18;;;;;;;0.60;0.60;;;;;;;;;;5072180;28;20899;-79
2022/11/17 03:39:54;;;;;;;0.60;0.60;;;;;;;;;;5067678;28;20437;-81
2022/11/17 03:42:26;;;;;;;0.60;0.60;;;;;;;;;;5079533;28;20434;-78
2022/11/17 03:44:59;;;;;;;0.60;0.60;;;;;;;;;;5086908;28;20922;-78
2022/11/17 03:47:29;;;;;;;0.60;0.60;;;;;;;;;;5073325;28;20549;-80
2022/11/17 03:49:59;;;;;;;0.60;0.60;;;;;;;;;;5054652;28;20472;-78
2022/11/17 03:52:28;;;;;;;0.60;0.60;;;;;;;;;;5078219;28;20451;-78
2022/11/17 03:54:55;;;;;;;0.70;0.63;;;;;;;;;;5078201;28;20483;-76
2022/11/17 03:57:25;;;;;;;0.60;0.60;;;;;;;;;;5082842;28;20465;-77
2022/11/17 03:59:53;;;;;;;0.60;0.60;;;;;;;;;;5073505;28;20443;-75
2022/11/17 04:02:24;;;;;;;0.60;0.60;;;;;;;;;;5074033;28;20452;-76
2022/11/17 04:05:04;;;;;;;0.67;0.67;;;;;;;;;;5075965;28;20451;-77
2022/11/17 04:07:33;;;;;;;0.70;0.70;;;;;;;;;;5086509;28;20790;-77
2022/11/17 04:10:03;;;;;;;0.60;0.60;;;;;;;;;;5084084;28;21034;-76
2022/11/17 04:18:19;;;;;;;0.60;0.60;;;;;;;;;;5079612;28;20822;-78
2022/11/17 04:20:49;;;;;;;0.60;0.60;;;;;;;;;;5086805;28;20476;-80
2022/11/17 04:23:16;;;;;;;0.70;0.70;;;;;;;;;;5084563;28;20481;-79
2022/11/17 04:28:37;;;;;;;0.70;0.70;;;;;;;;;;5091664;28;20430;-80
2022/11/17 04:31:05;;;;;;;0.60;0.60;;;;;;;;;;5076607;28;20455;-80
2022/11/17 04:33:34;;;;;;;0.60;0.60;;;;;;;;;;5077893;28;20463;-81
2022/11/17 04:36:03;;;;;;;0.60;0.60;;;;;;;;;;5080018;28;21037;-78
2022/11/17 04:38:31;;;;;;;0.70;0.70;;;;;;;;;;5063347;28;20439;-77
2022/11/17 04:43:51;;;;;;;0.60;0.60;;;;;;;;;;5082118;28;20452;-80
2022/11/17 04:46:18;;;;;;;0.60;0.60;;;;;;;;;;5076217;28;20434;-79
2022/11/17 04:48:46;;;;;;;0.60;0.60;;;;;;;;;;5080727;28;20480;-79
2022/11/17 04:51:15;;;;;;;0.70;0.70;;;;;;;;;;5082118;28;20513;-80
2022/11/17 04:53:42;;;;;;;0.70;0.70;;;;;;;;;;5082932;28;20445;-80
2022/11/17 04:56:09;;;;;;;0.60;0.60;;;;;;;;;;5082634;28;20484;-79
2022/11/17 04:58:37;;;;;;;0.60;0.60;;;;;;;;;;5088371;28;20488;-76
2022/11/17 05:01:12;;;;;;;0.70;0.70;;;;;;;;;;5085788;28;20936;-79
2022/11/17 05:03:40;;;;;;;0.70;0.70;;;;;;;;;;5082897;28;20433;-79
2022/11/17 05:06:07;;;;;;;0.60;0.60;;;;;;;;;;5085392;28;20481;-77
2022/11/17 05:08:35;;;;;;;0.70;0.70;;;;;;;;;;5086647;28;20510;-77
2022/11/17 05:13:49;;;;;;;0.60;0.60;;;;;;;;;;5085335;28;20528;-80
2022/11/17 05:19:05;;;;;;;0.70;0.70;;;;;;;;;;5066931;28;20459;-79
2022/11/17 05:21:35;;;;;;;0.60;0.60;;;;;;;;;;5083996;28;20459;-79
2022/11/17 05:24:04;;;;;;;0.60;0.60;;;;;;;;;;5074435;28;20448;-78
2022/11/17 05:26:31;;;;;;;0.60;0.60;;;;;;;;;;5086262;28;20484;-78
2022/11/17 05:28:59;;;;;;;0.60;0.60;;;;;;;;;;5082631;28;20437;-79
2022/11/17 05:31:26;;;;;;;0.70;0.70;;;;;;;;;;5095351;28;20442;-78
2022/11/17 05:33:55;;;;;;;0.70;0.70;;;;;;;;;;5086270;28;20437;-77
2022/11/17 05:36:23;;;;;;;0.70;0.70;;;;;;;;;;5090340;28;21351;-78
2022/11/17 05:38:50;;;;;;;0.60;0.60;;;;;;;;;;5084429;28;20520;-79
2022/11/17 05:41:18;;;;;;;0.60;0.60;;;;;;;;;;5089749;28;20435;-78
2022/11/17 05:43:45;;;;;;;0.60;0.60;;;;;;;;;;5090328;28;20805;-77
2022/11/17 05:46:12;;;;;;;0.60;0.60;;;;;;;;;;5101204;28;20433;-76
2022/11/17 05:48:38;;;;;;;0.70;0.70;;;;;;;;;;5094769;28;20464;-77
2022/11/17 05:51:08;;;;;;;0.60;0.60;;;;;;;;;;5093600;28;20542;-78
2022/11/17 05:53:35;;;;;;;0.60;0.60;;;;;;;;;;5092228;28;20438;-78
2022/11/17 05:56:07;;;;;;;0.70;0.70;;;;;;;;;;5098668;28;20442;-76
2022/11/17 05:58:36;;;;;;;0.60;0.60;;;;;;;;;;5094378;28;20448;-78
2022/11/17 06:01:04;;;;;;;0.60;0.60;;;;;;;;;;5088323;28;20519;-77
2022/11/17 06:03:32;;;;;;;0.60;0.60;;;;;;;;;;5065893;28;20446;-78
2022/11/17 06:06:00;;;;;;;0.70;0.70;;;;;;;;;;5063708;28;20845;-77
2022/11/17 06:08:27;;;;;;;0.70;0.70;;;;;;;;;;5081542;28;20425;-78
2022/11/17 06:10:56;;;;;;;0.63;0.63;;;;;;;;;;5082196;28;20836;-77
2022/11/17 06:13:26;;;;;;;0.60;0.60;;;;;;;;;;5075666;28;20446;-77
2022/11/17 06:15:56;;;;;;;0.60;0.60;;;;;;;;;;5078634;28;20928;-76
2022/11/17 06:18:26;;;;;;;0.60;0.60;;;;;;;;;;5070205;28;20470;-77
2022/11/17 06:20:53;;;;;;;0.70;0.70;;;;;;;;;;5084054;28;20448;-78
2022/11/17 06:23:21;;;;;;;0.67;0.67;;;;;;;;;;5085392;28;20436;-79
2022/11/17 06:25:49;;;;;;;0.70;0.70;;;;;;;;;;5075018;28;20499;-79
2022/11/17 06:28:17;;;;;;;0.60;0.60;;;;;;;;;;5080812;28;20433;-79
2022/11/17 06:30:45;;;;;;;0.60;0.60;;;;;;;;;;5079039;28;20504;-79
2022/11/17 06:33:14;;;;;;;0.60;0.60;;;;;;;;;;5084176;28;20444;-77
2022/11/17 06:35:41;;;;;;;0.60;0.60;;;;;;;;;;5083561;28;20513;-78
2022/11/17 06:38:08;;;;;;;0.60;0.60;;;;;;;;;;5069048;28;20503;-79
2022/11/17 06:40:35;;;;;;;0.60;0.60;;;;;;;;;;5079922;28;20778;-78
2022/11/17 06:43:02;;;;;;;0.60;0.60;;;;;;;;;;5079450;28;20451;-79
2022/11/17 06:45:31;;;;;;;0.60;0.60;;;;;;;;;;5068479;28;20482;-79
2022/11/17 06:47:58;;;;;;;0.60;0.60;;;;;;;;;;5081316;28;20442;-79
2022/11/17 06:50:26;;;;;;;0.70;0.70;;;;;;;;;;5086511;28;20495;-81
2022/11/17 06:52:55;;;;;;;0.60;0.60;;;;;;;;;;5059526;28;20948;-80
2022/11/17 06:55:24;;;;;;;0.60;0.60;;;;;;;;;;5088171;28;20445;-81
2022/11/17 06:57:57;;;;;;;0.60;0.60;;;;;;;;;;5086927;28;20454;-82
2022/11/17 07:00:27;;;;;;;1.00;1.00;;;;;;;;;;5083954;28;20450;-81
2022/11/17 07:02:58;;;;;;;0.60;0.60;;;;;;;;;;5083666;28;20438;-82
2022/11/17 07:05:24;;;;;;;0.60;0.60;;;;;;;;;;5082876;28;20471;-83
2022/11/17 07:07:55;;;;;;;0.70;0.70;;;;;;;;;;5066923;28;20845;-80
2022/11/17 07:10:22;;;;;;;0.60;0.60;;;;;;;;;;5079802;28;20474;-81
2022/11/17 07:12:49;;;;;;;0.60;0.60;;;;;;;;;;5076784;28;20446;-81
2022/11/17 07:15:15;;;;;;;0.70;0.70;;;;;;;;;;5083291;28;20438;-82
2022/11/17 07:17:42;;;;;;;0.60;0.60;;;;;;;;;;5086152;28;20940;-80
2022/11/17 07:20:09;;;;;;;0.70;0.70;;;;;;;;;;5078688;28;20513;-80
2022/11/17 07:22:36;;;;;;;0.60;0.60;;;;;;;;;;5083918;28;21027;-81
2022/11/17 07:25:05;;;;;;;0.60;0.60;;;;;;;;;;5088721;28;20431;-80
2022/11/17 07:27:32;;;;;;;0.63;0.63;;;;;;;;;;5073878;28;20469;-80
2022/11/17 07:29:59;;;;;;;0.60;0.60;;;;;;;;;;5088288;28;21004;-77
2022/11/17 07:32:27;;;;;;;0.60;0.60;;;;;;;;;;5084734;28;20452;-80
2022/11/17 07:34:53;;;;;;;0.60;0.60;;;;;;;;;;5079212;28;20435;-78
2022/11/17 07:37:20;;;;;;;0.63;0.63;;;;;;;;;;5069810;28;20463;-79
2022/11/17 07:39:47;;;;;;;0.70;0.70;;;;;;;;;;5063408;28;20498;-80
2022/11/17 07:42:15;;;;;;;0.60;0.50;;;;;;;;;;5065440;28;20486;-79
2022/11/17 07:44:51;;;;;;;0.70;0.70;;;;;;;;;;5080697;28;20780;-77
2022/11/17 07:47:18;;;;;;;0.70;0.70;;;;;;;;;;5079683;28;20435;-76
2022/11/17 07:49:45;;;;;;;0.60;0.60;;;;;;;;;;5086932;28;20434;-77
2022/11/17 07:52:12;;;;;;;0.60;0.60;;;;;;;;;;5087906;28;20466;-78
2022/11/17 07:54:39;;;;;;;0.60;0.60;;;;;;;;;;5080680;28;20495;-77
2022/11/17 07:57:06;;;;;;;0.60;0.60;;;;;;;;;;5083154;28;20442;-76
2022/11/17 07:59:34;;;;;;;0.60;0.60;;;;;;;;;;5079371;28;20841;-75
2022/11/17 08:02:01;;;;;;;0.60;0.60;;;;;;;;;;5076400;28;20519;-78
2022/11/17 08:04:31;;;;;;;0.60;0.60;;;;;;;;;;5083477;28;20431;-77
2022/11/17 08:06:57;;;;;;;0.60;0.60;;;;;;;;;;5087976;28;20454;-77
2022/11/17 08:09:25;;;;;;;0.60;0.60;;;;;;;;;;5067985;28;20452;-78
2022/11/17 08:11:52;;;;;;;0.70;0.60;;;;;;;;;;5090931;28;20482;-78
2022/11/17 08:14:19;;;;;;;0.60;0.60;;;;;;;;;;5087795;28;20905;-78
2022/11/17 08:16:49;;;;;;;0.70;0.70;;;;;;;;;;5067023;28;20453;-77
2022/11/17 08:19:16;;;;;;;0.60;0.60;;;;;;;;;;5081421;28;20434;-77
2022/11/17 08:21:43;;;;;;;0.60;0.60;;;;;;;;;;5065140;28;20463;-79
2022/11/17 08:24:10;;;;;;;0.60;0.60;;;;;;;;;;5076876;28;20432;-77
2022/11/17 08:26:37;;;;;;;0.70;0.70;;;;;;;;;;5083446;28;20445;-78
2022/11/17 08:29:04;;;;;;;0.60;0.60;;;;;;;;;;5083950;28;20481;-77
2022/11/17 08:31:31;;;;;;;0.60;0.60;;;;;;;;;;5078607;28;20474;-78
2022/11/17 08:34:00;;;;;;;0.60;0.60;;;;;;;;;;5080933;28;20442;-77
2022/11/17 08:36:27;;;;;;;0.70;0.70;;;;;;;;;;5080200;28;20864;-77
2022/11/17 08:38:53;;;;;;;0.70;0.70;;;;;;;;;;5084788;28;20470;-77
2022/11/17 08:41:20;;;;;;;0.60;0.60;;;;;;;;;;5075654;28;20861;-77
2022/11/17 08:43:48;;;;;;;0.70;0.70;;;;;;;;;;5077559;28;20462;-77
2022/11/17 08:46:15;;;;;;;0.60;0.60;;;;;;;;;;5085912;28;20453;-77
2022/11/17 08:48:44;;;;;;;0.67;0.60;;;;;;;;;;5081662;28;20431;-77
2022/11/17 08:51:13;;;;;;;0.70;0.70;;;;;;;;;;5084204;28;20471;-78
2022/11/17 08:53:40;;;;;;;0.70;0.70;;;;;;;;;;5082843;28;20463;-79
2022/11/17 08:56:08;;;;;;;0.60;0.60;;;;;;;;;;5078593;28;20450;-77
2022/11/17 08:58:39;;;;;;;0.60;0.60;;;;;;;;;;5087743;28;20852;-77
2022/11/17 09:01:07;;;;;;;0.60;0.60;;;;;;;;;;5082381;28;20426;-78
2022/11/17 09:03:33;;;;;;;0.70;0.70;;;;;;;;;;5082771;28;20463;-78
2022/11/17 09:06:02;;;;;;;0.70;0.70;;;;;;;;;;5080667;28;20512;-79
2022/11/17 09:08:30;;;;;;;0.70;0.70;;;;;;;;;;5056368;28;20454;-78
2022/11/17 09:11:13;;;;;;;1.10;1.00;;;;;;;;;;5082524;28;21513;-77
2022/11/17 09:13:41;;;;;;;0.70;0.70;;;;;;;;;;5063106;28;20818;-80
2022/11/17 09:16:09;;;;;;;0.70;0.60;;;;;;;;;;5068942;28;20431;-78
2022/11/17 09:18:36;;;;;;;0.60;0.60;;;;;;;;;;5048060;28;20447;-80
2022/11/17 09:21:05;;;;;;;0.70;0.63;;;;;;;;;;5084011;28;20835;-80
2022/11/17 09:23:34;;;;;;;0.70;0.60;;;;;;;;;;5064994;28;20486;-78
2022/11/17 09:26:04;;;;;;;0.70;0.70;;;;;;;;;;5079231;28;20440;-78
2022/11/17 09:28:32;;;;;;;0.70;0.70;;;;;;;;;;5080987;28;20446;-78
2022/11/17 09:31:04;;;;;;;0.70;0.60;;;;;;;;;;5083445;28;20497;-77
2022/11/17 09:33:34;;;;;;;0.70;0.70;;;;;;;;;;5065214;28;20443;-78
2022/11/17 09:36:02;;;;;;;0.70;0.70;;;;;;;;;;5059087;28;20484;-77
2022/11/17 09:38:29;;;;;;;0.70;0.60;;;;;;;;;;5087215;28;21002;-79
2022/11/17 09:40:58;;;;;;;0.70;0.67;;;;;;;;;;5083212;28;20858;-78
2022/11/17 09:43:27;;;;;;;0.70;0.60;;;;;;;;;;5079159;28;20427;-77
2022/11/17 09:45:58;;;;;;;0.70;0.70;;;;;;;;;;5066504;28;20544;-78
2022/11/17 09:48:38;;;;;;;0.70;0.60;;;;;;;;;;5054817;28;20462;-78
2022/11/17 09:51:11;;;;;;;0.70;0.70;;;;;;;;;;5052370;28;20486;-77
2022/11/17 09:53:42;;;;;;;0.80;0.80;;;;;;;;;;5056632;28;20523;-77
2022/11/17 09:56:11;;;;;;;0.70;0.70;;;;;;;;;;5078600;28;20455;-76
2022/11/17 09:58:40;;;;;;;0.70;0.63;;;;;;;;;;5075769;28;20459;-78
2022/11/17 10:01:10;;;;;;;0.70;0.60;;;;;;;;;;5062972;28;20452;-79
2022/11/17 10:03:36;;;;;;;0.70;0.70;;;;;;;;;;5077924;28;20451;-76
2022/11/17 10:06:12;;;;;;;0.70;0.70;;;;;;;;;;5078102;28;20479;-79
2022/11/17 10:08:42;;;;;;;0.70;0.60;;;;;;;;;;5082540;28;20445;-79
2022/11/17 10:11:31;;;;;;;0.70;0.70;;;;;;;;;;5071102;28;20477;-78
2022/11/17 10:14:01;;;;;;;0.70;0.70;;;;;;;;;;5052078;28;21029;-78
2022/11/17 10:16:28;;;;;;;0.70;0.60;;;;;;;;;;5083738;28;20487;-80
2022/11/17 10:18:56;;;;;;;0.80;0.80;;;;;;;;;;5089823;28;20447;-79
2022/11/17 10:21:22;;;;;;;0.80;0.80;;;;;;;;;;5086909;28;20440;-82
2022/11/17 10:23:56;;;;;;;0.70;0.70;;;;;;;;;;5074605;28;20446;-80
2022/11/17 10:26:25;;;;;;;0.80;0.80;;;;;;;;;;5089385;28;20966;-80
2022/11/17 10:29:03;;;;;;;0.70;0.70;;;;;;;;;;5082806;28;20469;-79
2022/11/17 10:31:39;;;;;;;0.70;0.70;;;;;;;;;;5074332;28;20472;-81
2022/11/17 10:34:10;;;;;;;0.80;0.80;;;;;;;;;;5089257;28;20803;-81
2022/11/17 10:36:45;;;;;;;0.70;0.70;;;;;;;;;;5074269;28;20497;-80
2022/11/17 10:39:32;;;;;;;0.70;0.60;;;;;;;;;;5088014;28;20462;-78
2022/11/17 10:42:21;;;;;;;0.80;0.70;;;;;;;;;;5081106;28;20499;-80
2022/11/17 10:44:50;;;;;;;0.70;0.70;;;;;;;;;;5102859;28;20452;-78
2022/11/17 10:47:25;;;;;;;0.80;0.80;;;;;;;;;;5085081;28;21027;-80
2022/11/17 10:50:04;;;;;;;0.73;0.73;;;;;;;;;;5095390;28;20431;-80
2022/11/17 10:52:31;;;;;;;0.70;0.70;;;;;;;;;;5077702;28;20524;-79
2022/11/17 10:55:12;;;;;;;0.70;0.60;;;;;;;;;;5066386;28;20531;-80
2022/11/17 10:57:42;;;;;;;0.70;0.70;;;;;;;;;;5084621;28;20450;-81
2022/11/17 11:00:20;;;;;;;0.70;0.70;;;;;;;;;;5085867;28;20537;-80
2022/11/17 11:02:47;;;;;;;0.70;0.70;;;;;;;;;;5062485;28;20427;-80
2022/11/17 11:05:15;;;;;;;0.70;0.70;;;;;;;;;;5059060;28;20480;-81
2022/11/17 11:07:42;;;;;;;0.80;0.80;;;;;;;;;;5066021;28;20886;-78
2022/11/17 11:10:13;;;;;;;0.70;0.70;;;;;;;;;;5078483;28;20448;-79
2022/11/17 11:12:44;;;;;;;0.90;0.90;;;;;;;;;;5066191;28;20462;-77
2022/11/17 11:15:14;;;;;;;0.80;0.80;;;;;;;;;;5057473;28;20434;-81
2022/11/17 11:17:41;;;;;;;0.70;0.70;;;;;;;;;;5062144;28;20574;-79
2022/11/17 11:20:11;;;;;;;0.70;0.60;;;;;;;;;;5081516;28;20440;-81
2022/11/17 11:22:44;;;;;;;0.70;0.70;;;;;;;;;;5068907;28;20485;-79
2022/11/17 11:25:16;;;;;;;0.70;0.60;;;;;;;;;;5081268;28;20449;-78
2022/11/17 11:27:50;;;;;;;0.70;0.70;;;;;;;;;;5069182;28;20496;-82
2022/11/17 11:30:18;;;;;;;0.70;0.70;;;;;;;;;;5088943;28;20444;-79
2022/11/17 11:32:53;;;;;;;0.70;0.70;;;;;;;;;;5068170;28;20465;-80
2022/11/17 11:35:37;;;;;;;0.73;0.73;;;;;;;;;;5092429;28;20460;-79
2022/11/17 11:38:12;;;;;;;0.70;0.70;;;;;;;;;;5079944;28;20418;-80
2022/11/17 11:40:44;;;;;;;0.80;0.70;;;;;;;;;;5089100;28;20422;-78
2022/11/17 11:43:24;;;;;;;0.70;0.70;;;;;;;;;;5084791;28;20418;-78
2022/11/17 11:45:59;;;;;;;0.73;0.73;;;;;;;;;;5082412;28;20430;-79
2022/11/17 11:48:26;;;;;;;0.80;0.80;;;;;;;;;;5079179;28;20488;-79
2022/11/17 11:50:55;;;;;;;0.80;0.80;;;;;;;;;;5068018;28;20524;-78
2022/11/17 11:53:27;;;;;;;0.70;0.70;;;;;;;;;;5068323;28;20847;-82
2022/11/17 11:56:00;;;;;;;0.70;0.70;;;;;;;;;;5083664;28;20444;-81
2022/11/17 11:58:28;;;;;;;0.70;0.70;;;;;;;;;;5086387;28;20824;-81
2022/11/17 12:01:00;;;;;;;0.87;0.87;;;;;;;;;;5073777;28;20455;-83
2022/11/17 12:03:32;;;;;;;0.80;0.80;;;;;;;;;;5072406;28;20448;-82
2022/11/17 12:08:57;;;;;;;0.70;0.70;;;;;;;;;;5076051;28;20453;-78
2022/11/17 12:14:14;;;;;;;0.73;0.70;;;;;;;;;;5075562;28;20477;-82
2022/11/17 12:16:43;;;;;;;0.70;0.60;;;;;;;;;;5078038;28;20450;-81
2022/11/17 12:19:25;;;;;;;0.70;0.60;;;;;;;;;;5074291;28;20430;-80
2022/11/17 12:21:53;;;;;;;0.70;0.70;;;;;;;;;;5070995;28;20534;-78
2022/11/17 12:24:24;;;;;;;0.70;0.60;;;;;;;;;;5081647;28;20437;-81
2022/11/17 12:27:13;;;;;;;0.70;0.70;;;;;;;;;;5086839;28;20444;-81
2022/11/17 12:29:47;;;;;;;0.70;0.67;;;;;;;;;;5052949;28;20973;-82
2022/11/17 12:32:33;;;;;;;0.70;0.70;;;;;;;;;;5070844;28;20524;-81
2022/11/17 12:35:15;;;;;;;0.80;0.80;;;;;;;;;;5079833;28;20446;-80
2022/11/17 12:37:44;;;;;;;0.70;0.70;;;;;;;;;;5077792;28;20504;-81
2022/11/17 12:40:28;;;;;;;0.70;0.60;;;;;;;;;;5066552;28;20972;-82
2022/11/17 12:43:15;;;;;;;0.70;0.70;;;;;;;;;;5081524;28;20964;-82
2022/11/17 12:45:57;;;;;;;0.70;0.70;;;;;;;;;;5052581;28;20439;-83
2022/11/17 12:48:27;;;;;;;0.70;0.70;;;;;;;;;;5066067;28;20463;-79
2022/11/17 12:51:07;;;;;;;0.70;0.70;;;;;;;;;;5082915;28;20479;-81
2022/11/17 12:53:58;;;;;;;0.70;0.70;;;;;;;;;;5084646;28;20870;-81
2022/11/17 12:56:49;;;;;;;0.80;0.80;;;;;;;;;;5040270;28;20455;-81
2022/11/17 12:59:35;;;;;;;0.70;0.70;;;;;;;;;;5068540;28;20455;-81
2022/11/17 13:02:17;;;;;;;1.07;1.00;;;;;;;;;;5089124;28;20442;-81
2022/11/17 13:04:47;;;;;;;0.70;0.60;;;;;;;;;;5079607;28;20451;-80
2022/11/17 13:07:18;;;;;;;0.70;0.70;;;;;;;;;;5087609;28;20569;-78
2022/11/17 13:09:48;;;;;;;0.70;0.60;;;;;;;;;;5046035;28;20451;-81
2022/11/17 13:12:20;;;;;;;0.70;0.60;;;;;;;;;;5083452;28;20505;-79
2022/11/17 13:14:52;;;;;;;0.80;0.80;;;;;;;;;;5078135;28;20466;-80
2022/11/17 13:17:23;;;;;;;0.70;0.70;;;;;;;;;;5084965;28;20906;-82
2022/11/17 13:19:56;;;;;;;0.80;0.70;;;;;;;;;;5059124;28;21025;-84
2022/11/17 13:22:23;;;;;;;0.70;0.70;;;;;;;;;;5070124;28;20438;-78
2022/11/17 13:24:53;;;;;;;0.70;0.70;;;;;;;;;;5072192;28;20483;-81
2022/11/17 13:27:22;;;;;;;0.70;0.70;;;;;;;;;;5064936;28;20449;-80
2022/11/17 13:29:49;;;;;;;0.70;0.70;;;;;;;;;;5060382;28;20484;-83
2022/11/17 13:32:19;;;;;;;0.70;0.70;;;;;;;;;;5071447;28;20477;-82
2022/11/17 13:34:55;;;;;;;0.90;0.90;;;;;;;;;;5087406;28;20443;-80
2022/11/17 13:37:23;;;;;;;0.70;0.70;;;;;;;;;;5064894;28;20489;-80
2022/11/17 13:39:54;;;;;;;0.70;0.70;;;;;;;;;;5063110;28;20808;-82
2022/11/17 13:42:23;;;;;;;0.70;0.60;;;;;;;;;;5067504;28;20859;-82
2022/11/17 13:44:51;;;;;;;0.70;0.60;;;;;;;;;;5089981;28;20447;-81
2022/11/17 13:47:19;;;;;;;0.70;0.70;;;;;;;;;;5083966;28;20451;-81
2022/11/17 13:49:46;;;;;;;0.80;0.70;;;;;;;;;;5078048;28;20461;-81
2022/11/17 13:52:25;;;;;;;0.70;0.60;;;;;;;;;;5082618;28;20473;-79
2022/11/17 13:55:00;;;;;;;0.70;0.70;;;;;;;;;;5069573;28;20973;-81
2022/11/17 13:57:27;;;;;;;0.70;0.60;;;;;;;;;;5082524;28;20511;-80
2022/11/17 13:59:55;;;;;;;0.70;0.70;;;;;;;;;;5081327;28;20443;-81
2022/11/17 14:02:23;;;;;;;0.70;0.70;;;;;;;;;;5086421;28;20423;-81
2022/11/17 14:05:05;;;;;;;0.70;0.70;;;;;;;;;;5065678;28;20466;-80
2022/11/17 14:07:35;;;;;;;0.70;0.70;;;;;;;;;;5059974;28;20447;-80
2022/11/17 14:10:22;;;;;;;0.70;0.70;;;;;;;;;;5073615;28;20489;-81
2022/11/17 14:12:51;;;;;;;0.70;0.70;;;;;;;;;;5067338;28;20480;-81
2022/11/17 14:15:23;;;;;;;0.70;0.70;;;;;;;;;;5065239;28;20459;-80
2022/11/17 14:17:52;;;;;;;0.70;0.70;;;;;;;;;;5083323;28;20542;-81
2022/11/17 14:20:29;;;;;;;0.70;0.63;;;;;;;;;;5088015;28;20470;-81
2022/11/17 14:23:04;;;;;;;0.70;0.70;;;;;;;;;;5072400;28;20427;-81
2022/11/17 14:25:33;;;;;;;0.70;0.70;;;;;;;;;;5081440;28;20532;-81
2022/11/17 14:28:03;;;;;;;0.70;0.67;;;;;;;;;;5059742;28;20449;-80
2022/11/17 14:30:29;;;;;;;0.70;0.70;;;;;;;;;;5085291;28;20856;-79
2022/11/17 14:32:56;;;;;;;0.70;0.60;;;;;;;;;;5092602;28;21180;-78
2022/11/17 14:35:37;;;;;;;0.70;0.70;;;;;;;;;;5052044;28;20466;-80
2022/11/17 14:38:11;;;;;;;0.70;0.60;;;;;;;;;;5085172;28;20452;-79
2022/11/17 14:40:39;;;;;;;0.70;0.70;;;;;;;;;;5068633;28;20986;-81
2022/11/17 14:43:06;;;;;;;0.80;0.80;;;;;;;;;;5070009;28;20488;-81
2022/11/17 14:45:34;;;;;;;0.70;0.70;;;;;;;;;;5090426;28;20790;-77
2022/11/17 14:48:02;;;;;;;0.70;0.70;;;;;;;;;;5085990;28;20494;-82
2022/11/17 14:50:31;;;;;;;0.70;0.70;;;;;;;;;;5080191;28;20488;-81
2022/11/17 14:53:00;;;;;;;0.70;0.70;;;;;;;;;;5070777;28;20483;-82
2022/11/17 14:55:30;;;;;;;0.70;0.70;;;;;;;;;;5068044;28;20471;-81
2022/11/17 14:57:57;;;;;;;0.70;0.60;;;;;;;;;;5080422;28;20454;-80
2022/11/17 15:00:23;;;;;;;0.80;0.80;;;;;;;;;;5078263;28;20942;-81
2022/11/17 15:02:51;;;;;;;0.70;0.70;;;;;;;;;;5080221;28;20486;-81
2022/11/17 15:05:19;;;;;;;0.70;0.67;;;;;;;;;;5090067;28;20466;-81
2022/11/17 15:07:47;;;;;;;0.70;0.70;;;;;;;;;;5061754;28;20455;-81
2022/11/17 15:10:15;;;;;;;0.70;0.70;;;;;;;;;;5084298;28;20463;-80
2022/11/17 15:12:45;;;;;;;0.80;0.73;;;;;;;;;;5084551;28;20474;-80
2022/11/17 15:15:12;;;;;;;0.70;0.70;;;;;;;;;;5081942;28;20927;-81
2022/11/17 15:17:39;;;;;;;0.80;0.80;;;;;;;;;;5081872;28;20443;-78
2022/11/17 15:20:08;;;;;;;0.70;0.70;;;;;;;;;;5068867;28;20452;-77
2022/11/17 15:22:34;;;;;;;0.70;0.70;;;;;;;;;;5085258;28;20533;-79
2022/11/17 15:25:01;;;;;;;0.70;0.70;;;;;;;;;;5083699;28;20955;-79
2022/11/17 15:27:29;;;;;;;0.80;0.80;;;;;;;;;;5078814;28;20452;-80
2022/11/17 15:29:57;;;;;;;0.70;0.70;;;;;;;;;;5091115;28;20466;-81
2022/11/17 15:32:31;;;;;;;0.80;0.80;;;;;;;;;;5082706;28;20473;-80
2022/11/17 15:34:59;;;;;;;0.70;0.70;;;;;;;;;;5084781;28;21025;-81
2022/11/17 15:37:27;;;;;;;0.70;0.70;;;;;;;;;;5082789;28;20452;-81